Terminal Aerodrome Forecast
Issued by NWS Cleveland, OH

Home | Current Version | Previous Version | Graphics & Text | Print | Product List | Glossary On
Versions: 1 2 3 4 5 6 7 8 9 10 11 12 13 14 15 16 17 18
558
FTUS41 KCLE 171739
TAFTOL
TAF
KTOL 171739Z 1718/1818 19008KT 4SM -SHRA VCTS BKN035CB OVC060
      TEMPO 1718/1719 1SM TSRA OVC015CB
     FM172000 21010G20KT P6SM VCSH SCT040 BKN060
     FM172300 24008KT P6SM SCT050
     FM181300 25011KT P6SM BKN012
     FM181600 26012G20KT P6SM BKN030=

USA.gov is the U.S. government's official web portal to all federal, state and local government web resources and services.